sensor_id;sensor_type;location;lat;lon;timestamp;P1;durP1;ratioP1;P2;durP2;ratioP2
6290;SDS011;3178;48.730;8.990;2023-04-21T00:02:14;19.60;;;14.17;;
6290;SDS011;3178;48.730;8.990;2023-04-21T00:04:40;18.87;;;14.10;;
6290;SDS011;3178;48.730;8.990;2023-04-21T00:07:06;17.67;;;13.07;;
6290;SDS011;3178;48.730;8.990;2023-04-21T00:09:32;22.93;;;14.90;;
6290;SDS011;3178;48.730;8.990;2023-04-21T00:11:58;25.40;;;18.10;;
6290;SDS011;3178;48.730;8.990;2023-04-21T00:14:23;47.17;;;31.20;;
6290;SDS011;3178;48.730;8.990;2023-04-21T00:16:49;26.90;;;18.80;;
6290;SDS011;3178;48.730;8.990;2023-04-21T00:19:17;27.77;;;20.10;;
6290;SDS011;3178;48.730;8.990;2023-04-21T00:21:43;27.20;;;18.30;;
6290;SDS011;3178;48.730;8.990;2023-04-21T00:24:09;24.43;;;17.67;;
6290;SDS011;3178;48.730;8.990;2023-04-21T00:26:35;28.47;;;16.70;;
6290;SDS011;3178;48.730;8.990;2023-04-21T00:29:00;24.93;;;17.43;;
6290;SDS011;3178;48.730;8.990;2023-04-21T00:31:26;23.87;;;17.73;;
6290;SDS011;3178;48.730;8.990;2023-04-21T00:33:51;23.40;;;17.27;;
6290;SDS011;3178;48.730;8.990;2023-04-21T00:36:17;20.50;;;15.60;;
6290;SDS011;3178;48.730;8.990;2023-04-21T00:38:43;20.67;;;14.97;;
6290;SDS011;3178;48.730;8.990;2023-04-21T00:41:09;23.03;;;15.43;;
6290;SDS011;3178;48.730;8.990;2023-04-21T00:43:34;21.23;;;15.50;;
6290;SDS011;3178;48.730;8.990;2023-04-21T00:46:00;22.67;;;16.90;;
6290;SDS011;3178;48.730;8.990;2023-04-21T00:48:26;26.77;;;17.30;;
6290;SDS011;3178;48.730;8.990;2023-04-21T00:50:51;23.07;;;16.53;;
6290;SDS011;3178;48.730;8.990;2023-04-21T00:53:17;24.10;;;17.03;;
6290;SDS011;3178;48.730;8.990;2023-04-21T00:55:44;23.27;;;15.77;;
6290;SDS011;3178;48.730;8.990;2023-04-21T00:58:10;21.93;;;16.63;;
6290;SDS011;3178;48.730;8.990;2023-04-21T01:00:36;22.87;;;16.00;;
6290;SDS011;3178;48.730;8.990;2023-04-21T01:03:03;20.30;;;13.60;;
6290;SDS011;3178;48.730;8.990;2023-04-21T01:05:30;19.03;;;13.87;;
6290;SDS011;3178;48.730;8.990;2023-04-21T01:07:56;19.57;;;13.70;;
6290;SDS011;3178;48.730;8.990;2023-04-21T01:10:21;19.50;;;13.90;;
6290;SDS011;3178;48.730;8.990;2023-04-21T01:12:47;17.27;;;12.50;;
6290;SDS011;3178;48.730;8.990;2023-04-21T01:15:13;14.30;;;11.53;;
6290;SDS011;3178;48.730;8.990;2023-04-21T01:17:40;16.90;;;12.13;;
6290;SDS011;3178;48.730;8.990;2023-04-21T01:20:06;14.13;;;10.63;;
6290;SDS011;3178;48.730;8.990;2023-04-21T01:22:36;15.97;;;11.90;;
6290;SDS011;3178;48.730;8.990;2023-04-21T01:25:02;17.63;;;12.20;;
6290;SDS011;3178;48.730;8.990;2023-04-21T01:27:29;18.63;;;12.40;;
6290;SDS011;3178;48.730;8.990;2023-04-21T01:29:55;16.07;;;11.80;;
6290;SDS011;3178;48.730;8.990;2023-04-21T01:32:22;19.60;;;15.07;;
6290;SDS011;3178;48.730;8.990;2023-04-21T01:34:53;16.30;;;11.30;;
6290;SDS011;3178;48.730;8.990;2023-04-21T01:37:20;16.47;;;11.17;;
6290;SDS011;3178;48.730;8.990;2023-04-21T01:39:49;14.33;;;9.87;;
6290;SDS011;3178;48.730;8.990;2023-04-21T01:42:18;13.40;;;10.17;;
6290;SDS011;3178;48.730;8.990;2023-04-21T01:44:45;17.43;;;10.83;;
6290;SDS011;3178;48.730;8.990;2023-04-21T01:47:11;10.33;;;8.80;;
6290;SDS011;3178;48.730;8.990;2023-04-21T01:49:37;17.50;;;8.97;;
6290;SDS011;3178;48.730;8.990;2023-04-21T01:52:02;13.83;;;8.50;;
6290;SDS011;3178;48.730;8.990;2023-04-21T01:54:28;14.53;;;9.27;;
6290;SDS011;3178;48.730;8.990;2023-04-21T01:56:54;10.93;;;8.63;;
6290;SDS011;3178;48.730;8.990;2023-04-21T01:59:20;10.37;;;8.50;;
6290;SDS011;3178;48.730;8.990;2023-04-21T02:01:46;18.60;;;11.80;;
6290;SDS011;3178;48.730;8.990;2023-04-21T02:04:11;16.27;;;10.03;;
6290;SDS011;3178;48.730;8.990;2023-04-21T02:06:37;13.73;;;9.47;;
6290;SDS011;3178;48.730;8.990;2023-04-21T02:09:02;14.60;;;7.67;;
6290;SDS011;3178;48.730;8.990;2023-04-21T02:11:28;11.03;;;8.80;;
6290;SDS011;3178;48.730;8.990;2023-04-21T02:13:53;10.93;;;7.50;;
6290;SDS011;3178;48.730;8.990;2023-04-21T02:16:19;12.40;;;8.03;;
6290;SDS011;3178;48.730;8.990;2023-04-21T02:18:50;9.67;;;7.60;;
6290;SDS011;3178;48.730;8.990;2023-04-21T02:21:19;11.60;;;7.50;;
6290;SDS011;3178;48.730;8.990;2023-04-21T02:23:45;14.27;;;8.30;;
6290;SDS011;3178;48.730;8.990;2023-04-21T02:26:11;12.43;;;7.90;;
6290;SDS011;3178;48.730;8.990;2023-04-21T02:28:36;12.50;;;7.07;;
6290;SDS011;3178;48.730;8.990;2023-04-21T02:31:02;10.73;;;7.83;;
6290;SDS011;3178;48.730;8.990;2023-04-21T02:33:27;8.07;;;6.67;;
6290;SDS011;3178;48.730;8.990;2023-04-21T02:35:53;10.27;;;8.00;;
6290;SDS011;3178;48.730;8.990;2023-04-21T02:38:19;10.43;;;7.27;;
6290;SDS011;3178;48.730;8.990;2023-04-21T02:40:44;8.80;;;6.30;;
6290;SDS011;3178;48.730;8.990;2023-04-21T02:43:10;15.60;;;7.10;;
6290;SDS011;3178;48.730;8.990;2023-04-21T02:45:37;9.13;;;7.03;;
6290;SDS011;3178;48.730;8.990;2023-04-21T02:48:02;11.33;;;8.60;;
6290;SDS011;3178;48.730;8.990;2023-04-21T02:50:28;12.83;;;9.87;;
6290;SDS011;3178;48.730;8.990;2023-04-21T02:52:54;11.50;;;8.90;;
6290;SDS011;3178;48.730;8.990;2023-04-21T02:55:19;23.83;;;10.50;;
6290;SDS011;3178;48.730;8.990;2023-04-21T02:57:46;14.97;;;11.23;;
6290;SDS011;3178;48.730;8.990;2023-04-21T03:00:12;24.23;;;13.47;;
6290;SDS011;3178;48.730;8.990;2023-04-21T03:02:38;19.63;;;14.20;;
6290;SDS011;3178;48.730;8.990;2023-04-21T03:05:04;58.63;;;13.43;;
6290;SDS011;3178;48.730;8.990;2023-04-21T03:07:30;21.23;;;13.07;;
6290;SDS011;3178;48.730;8.990;2023-04-21T03:09:56;22.87;;;14.30;;
6290;SDS011;3178;48.730;8.990;2023-04-21T03:12:22;19.50;;;13.67;;
6290;SDS011;3178;48.730;8.990;2023-04-21T03:14:47;24.20;;;13.40;;
6290;SDS011;3178;48.730;8.990;2023-04-21T03:17:13;27.13;;;13.27;;
6290;SDS011;3178;48.730;8.990;2023-04-21T03:19:38;17.43;;;12.83;;
6290;SDS011;3178;48.730;8.990;2023-04-21T03:22:04;19.50;;;14.40;;
6290;SDS011;3178;48.730;8.990;2023-04-21T03:24:30;20.20;;;13.70;;
6290;SDS011;3178;48.730;8.990;2023-04-21T03:26:56;20.90;;;15.00;;
6290;SDS011;3178;48.730;8.990;2023-04-21T03:29:21;23.23;;;13.80;;
6290;SDS011;3178;48.730;8.990;2023-04-21T03:31:47;28.13;;;14.03;;
6290;SDS011;3178;48.730;8.990;2023-04-21T03:34:13;20.07;;;13.63;;
6290;SDS011;3178;48.730;8.990;2023-04-21T03:36:38;27.50;;;13.53;;
6290;SDS011;3178;48.730;8.990;2023-04-21T03:39:04;33.97;;;13.83;;
6290;SDS011;3178;48.730;8.990;2023-04-21T03:41:30;24.97;;;13.60;;
6290;SDS011;3178;48.730;8.990;2023-04-21T03:43:57;17.90;;;13.20;;
6290;SDS011;3178;48.730;8.990;2023-04-21T03:46:22;24.33;;;12.80;;
6290;SDS011;3178;48.730;8.990;2023-04-21T03:48:48;34.43;;;13.40;;
6290;SDS011;3178;48.730;8.990;2023-04-21T03:51:13;31.90;;;14.07;;
6290;SDS011;3178;48.730;8.990;2023-04-21T03:53:39;41.40;;;14.83;;
6290;SDS011;3178;48.730;8.990;2023-04-21T03:56:05;17.77;;;12.90;;
6290;SDS011;3178;48.730;8.990;2023-04-21T03:58:31;20.87;;;14.33;;
6290;SDS011;3178;48.730;8.990;2023-04-21T04:00:57;23.77;;;14.23;;
6290;SDS011;3178;48.730;8.990;2023-04-21T04:03:22;17.67;;;12.27;;
6290;SDS011;3178;48.730;8.990;2023-04-21T04:05:48;33.10;;;13.70;;
6290;SDS011;3178;48.730;8.990;2023-04-21T04:08:13;19.67;;;14.30;;
6290;SDS011;3178;48.730;8.990;2023-04-21T04:10:39;26.90;;;15.50;;
6290;SDS011;3178;48.730;8.990;2023-04-21T04:13:04;22.57;;;14.27;;
6290;SDS011;3178;48.730;8.990;2023-04-21T04:15:30;19.80;;;13.30;;
6290;SDS011;3178;48.730;8.990;2023-04-21T04:17:55;25.47;;;14.23;;
6290;SDS011;3178;48.730;8.990;2023-04-21T04:20:21;27.90;;;14.57;;
6290;SDS011;3178;48.730;8.990;2023-04-21T04:22:46;24.60;;;15.97;;
6290;SDS011;3178;48.730;8.990;2023-04-21T04:25:12;18.83;;;13.50;;
6290;SDS011;3178;48.730;8.990;2023-04-21T04:27:40;56.77;;;14.30;;
6290;SDS011;3178;48.730;8.990;2023-04-21T04:30:10;18.97;;;13.73;;
6290;SDS011;3178;48.730;8.990;2023-04-21T04:32:37;20.87;;;13.73;;
6290;SDS011;3178;48.730;8.990;2023-04-21T04:35:04;22.23;;;12.90;;
6290;SDS011;3178;48.730;8.990;2023-04-21T04:37:30;18.70;;;13.10;;
6290;SDS011;3178;48.730;8.990;2023-04-21T04:39:58;22.43;;;13.60;;
6290;SDS011;3178;48.730;8.990;2023-04-21T04:42:24;18.70;;;11.97;;
6290;SDS011;3178;48.730;8.990;2023-04-21T04:44:52;18.67;;;13.10;;
6290;SDS011;3178;48.730;8.990;2023-04-21T04:47:18;16.87;;;12.80;;
6290;SDS011;3178;48.730;8.990;2023-04-21T04:49:44;14.97;;;12.03;;
6290;SDS011;3178;48.730;8.990;2023-04-21T04:52:09;16.40;;;11.80;;
6290;SDS011;3178;48.730;8.990;2023-04-21T04:54:35;16.23;;;12.73;;
6290;SDS011;3178;48.730;8.990;2023-04-21T04:57:01;15.20;;;12.10;;
6290;SDS011;3178;48.730;8.990;2023-04-21T04:59:26;16.20;;;11.83;;
6290;SDS011;3178;48.730;8.990;2023-04-21T05:01:52;16.50;;;12.10;;
6290;SDS011;3178;48.730;8.990;2023-04-21T05:04:18;15.93;;;11.37;;
6290;SDS011;3178;48.730;8.990;2023-04-21T05:06:43;17.17;;;11.90;;
6290;SDS011;3178;48.730;8.990;2023-04-21T05:09:09;16.60;;;11.73;;
6290;SDS011;3178;48.730;8.990;2023-04-21T05:11:35;15.40;;;10.87;;
6290;SDS011;3178;48.730;8.990;2023-04-21T05:14:01;16.97;;;10.50;;
6290;SDS011;3178;48.730;8.990;2023-04-21T05:16:26;16.67;;;12.17;;
6290;SDS011;3178;48.730;8.990;2023-04-21T05:18:52;16.80;;;11.03;;
6290;SDS011;3178;48.730;8.990;2023-04-21T05:21:26;17.40;;;11.33;;
6290;SDS011;3178;48.730;8.990;2023-04-21T05:23:53;17.17;;;11.63;;
6290;SDS011;3178;48.730;8.990;2023-04-21T05:26:22;20.50;;;11.10;;
6290;SDS011;3178;48.730;8.990;2023-04-21T05:28:49;17.60;;;12.30;;
6290;SDS011;3178;48.730;8.990;2023-04-21T05:31:15;16.10;;;11.80;;
6290;SDS011;3178;48.730;8.990;2023-04-21T05:33:41;14.10;;;11.07;;
6290;SDS011;3178;48.730;8.990;2023-04-21T05:36:07;21.40;;;15.07;;
6290;SDS011;3178;48.730;8.990;2023-04-21T05:38:33;17.20;;;11.83;;
6290;SDS011;3178;48.730;8.990;2023-04-21T05:40:59;15.70;;;12.40;;
6290;SDS011;3178;48.730;8.990;2023-04-21T05:43:24;15.13;;;12.43;;
6290;SDS011;3178;48.730;8.990;2023-04-21T05:45:50;16.77;;;12.80;;
6290;SDS011;3178;48.730;8.990;2023-04-21T05:48:15;15.50;;;12.20;;
6290;SDS011;3178;48.730;8.990;2023-04-21T05:50:41;16.63;;;12.20;;
6290;SDS011;3178;48.730;8.990;2023-04-21T05:53:06;15.80;;;12.37;;
6290;SDS011;3178;48.730;8.990;2023-04-21T05:55:32;16.37;;;12.40;;
6290;SDS011;3178;48.730;8.990;2023-04-21T05:57:58;15.43;;;11.80;;
6290;SDS011;3178;48.730;8.990;2023-04-21T06:00:24;19.20;;;13.53;;
6290;SDS011;3178;48.730;8.990;2023-04-21T06:02:50;16.47;;;12.47;;
6290;SDS011;3178;48.730;8.990;2023-04-21T06:05:16;16.27;;;12.10;;
6290;SDS011;3178;48.730;8.990;2023-04-21T06:07:42;16.50;;;13.33;;
6290;SDS011;3178;48.730;8.990;2023-04-21T06:10:09;18.07;;;13.17;;
6290;SDS011;3178;48.730;8.990;2023-04-21T06:12:35;18.47;;;13.80;;
6290;SDS011;3178;48.730;8.990;2023-04-21T06:15:00;19.50;;;14.40;;
6290;SDS011;3178;48.730;8.990;2023-04-21T06:17:26;17.93;;;14.10;;
6290;SDS011;3178;48.730;8.990;2023-04-21T06:19:52;16.47;;;13.00;;
6290;SDS011;3178;48.730;8.990;2023-04-21T06:22:18;22.10;;;14.97;;
6290;SDS011;3178;48.730;8.990;2023-04-21T06:24:45;16.67;;;12.87;;
6290;SDS011;3178;48.730;8.990;2023-04-21T06:27:10;20.30;;;14.00;;
6290;SDS011;3178;48.730;8.990;2023-04-21T06:29:36;15.17;;;12.23;;
6290;SDS011;3178;48.730;8.990;2023-04-21T06:32:02;16.60;;;13.20;;
6290;SDS011;3178;48.730;8.990;2023-04-21T06:34:28;16.33;;;11.63;;
6290;SDS011;3178;48.730;8.990;2023-04-21T06:36:53;14.93;;;12.30;;
6290;SDS011;3178;48.730;8.990;2023-04-21T06:39:19;22.37;;;14.93;;
6290;SDS011;3178;48.730;8.990;2023-04-21T06:41:44;18.40;;;13.10;;
6290;SDS011;3178;48.730;8.990;2023-04-21T06:44:10;18.37;;;12.93;;
6290;SDS011;3178;48.730;8.990;2023-04-21T06:46:41;17.30;;;12.90;;
6290;SDS011;3178;48.730;8.990;2023-04-21T06:49:07;19.30;;;12.40;;
6290;SDS011;3178;48.730;8.990;2023-04-21T06:51:33;14.70;;;11.53;;
6290;SDS011;3178;48.730;8.990;2023-04-21T06:53:59;17.00;;;13.10;;
6290;SDS011;3178;48.730;8.990;2023-04-21T06:56:25;14.80;;;11.60;;
6290;SDS011;3178;48.730;8.990;2023-04-21T06:58:51;15.67;;;12.73;;
6290;SDS011;3178;48.730;8.990;2023-04-21T07:01:17;15.40;;;10.70;;
6290;SDS011;3178;48.730;8.990;2023-04-21T07:03:43;12.43;;;10.30;;
6290;SDS011;3178;48.730;8.990;2023-04-21T07:06:08;15.00;;;10.17;;
6290;SDS011;3178;48.730;8.990;2023-04-21T07:08:34;13.73;;;11.40;;
6290;SDS011;3178;48.730;8.990;2023-04-21T07:11:00;14.27;;;11.03;;
6290;SDS011;3178;48.730;8.990;2023-04-21T07:13:26;21.90;;;11.17;;
6290;SDS011;3178;48.730;8.990;2023-04-21T07:15:51;13.83;;;12.33;;
6290;SDS011;3178;48.730;8.990;2023-04-21T07:18:17;16.73;;;12.10;;
6290;SDS011;3178;48.730;8.990;2023-04-21T07:20:43;13.10;;;11.23;;
6290;SDS011;3178;48.730;8.990;2023-04-21T07:23:08;13.23;;;10.47;;
6290;SDS011;3178;48.730;8.990;2023-04-21T07:25:34;14.03;;;10.67;;
6290;SDS011;3178;48.730;8.990;2023-04-21T07:27:59;14.30;;;11.33;;
6290;SDS011;3178;48.730;8.990;2023-04-21T07:30:27;16.87;;;11.07;;
6290;SDS011;3178;48.730;8.990;2023-04-21T07:32:53;15.43;;;12.80;;
6290;SDS011;3178;48.730;8.990;2023-04-21T07:35:18;15.87;;;12.93;;
6290;SDS011;3178;48.730;8.990;2023-04-21T07:37:44;15.60;;;12.73;;
6290;SDS011;3178;48.730;8.990;2023-04-21T07:40:10;16.00;;;13.27;;
6290;SDS011;3178;48.730;8.990;2023-04-21T07:42:35;19.13;;;14.07;;
6290;SDS011;3178;48.730;8.990;2023-04-21T07:45:01;17.87;;;13.30;;
6290;SDS011;3178;48.730;8.990;2023-04-21T07:47:28;18.70;;;13.60;;
6290;SDS011;3178;48.730;8.990;2023-04-21T07:49:53;18.60;;;13.43;;
6290;SDS011;3178;48.730;8.990;2023-04-21T07:52:19;17.63;;;13.17;;
6290;SDS011;3178;48.730;8.990;2023-04-21T07:54:45;16.40;;;12.77;;
6290;SDS011;3178;48.730;8.990;2023-04-21T07:57:10;17.27;;;12.77;;
6290;SDS011;3178;48.730;8.990;2023-04-21T07:59:36;15.63;;;12.10;;
6290;SDS011;3178;48.730;8.990;2023-04-21T08:02:01;13.13;;;10.90;;
6290;SDS011;3178;48.730;8.990;2023-04-21T08:04:27;14.17;;;10.83;;
6290;SDS011;3178;48.730;8.990;2023-04-21T08:06:53;13.50;;;10.57;;
6290;SDS011;3178;48.730;8.990;2023-04-21T08:09:18;13.40;;;11.00;;
6290;SDS011;3178;48.730;8.990;2023-04-21T08:11:44;12.20;;;9.40;;
6290;SDS011;3178;48.730;8.990;2023-04-21T08:14:11;12.60;;;8.87;;
6290;SDS011;3178;48.730;8.990;2023-04-21T08:16:37;9.80;;;6.77;;
6290;SDS011;3178;48.730;8.990;2023-04-21T08:19:04;9.37;;;7.30;;
6290;SDS011;3178;48.730;8.990;2023-04-21T08:21:31;9.57;;;6.93;;
6290;SDS011;3178;48.730;8.990;2023-04-21T08:23:57;10.63;;;7.67;;
6290;SDS011;3178;48.730;8.990;2023-04-21T08:26:23;7.90;;;7.10;;
6290;SDS011;3178;48.730;8.990;2023-04-21T08:28:49;8.70;;;6.67;;
6290;SDS011;3178;48.730;8.990;2023-04-21T08:31:15;7.33;;;6.30;;
6290;SDS011;3178;48.730;8.990;2023-04-21T08:33:42;11.37;;;8.27;;
6290;SDS011;3178;48.730;8.990;2023-04-21T08:36:07;8.47;;;6.70;;
6290;SDS011;3178;48.730;8.990;2023-04-21T08:38:34;7.93;;;6.47;;
6290;SDS011;3178;48.730;8.990;2023-04-21T08:41:00;7.43;;;6.60;;
6290;SDS011;3178;48.730;8.990;2023-04-21T08:43:27;9.77;;;8.30;;
6290;SDS011;3178;48.730;8.990;2023-04-21T08:45:53;10.80;;;7.10;;
6290;SDS011;3178;48.730;8.990;2023-04-21T08:48:20;8.83;;;7.90;;
6290;SDS011;3178;48.730;8.990;2023-04-21T08:50:48;8.63;;;7.30;;
6290;SDS011;3178;48.730;8.990;2023-04-21T08:53:14;8.67;;;7.33;;
6290;SDS011;3178;48.730;8.990;2023-04-21T08:55:43;8.67;;;7.00;;
6290;SDS011;3178;48.730;8.990;2023-04-21T08:58:09;8.70;;;6.57;;
6290;SDS011;3178;48.730;8.990;2023-04-21T09:00:35;9.10;;;6.23;;
6290;SDS011;3178;48.730;8.990;2023-04-21T09:03:03;5.97;;;4.80;;
6290;SDS011;3178;48.730;8.990;2023-04-21T09:05:32;7.30;;;5.60;;
6290;SDS011;3178;48.730;8.990;2023-04-21T09:08:11;6.50;;;5.60;;
6290;SDS011;3178;48.730;8.990;2023-04-21T09:10:45;7.33;;;6.00;;
6290;SDS011;3178;48.730;8.990;2023-04-21T09:13:14;6.20;;;5.33;;
6290;SDS011;3178;48.730;8.990;2023-04-21T09:15:43;9.00;;;5.80;;
6290;SDS011;3178;48.730;8.990;2023-04-21T09:18:12;6.37;;;4.90;;
6290;SDS011;3178;48.730;8.990;2023-04-21T09:20:39;6.07;;;4.83;;
6290;SDS011;3178;48.730;8.990;2023-04-21T09:23:06;6.40;;;4.47;;
6290;SDS011;3178;48.730;8.990;2023-04-21T09:25:32;10.53;;;5.60;;
6290;SDS011;3178;48.730;8.990;2023-04-21T09:28:01;7.93;;;6.13;;
6290;SDS011;3178;48.730;8.990;2023-04-21T09:30:27;6.57;;;5.87;;
6290;SDS011;3178;48.730;8.990;2023-04-21T09:32:56;8.13;;;6.27;;
6290;SDS011;3178;48.730;8.990;2023-04-21T09:35:22;8.33;;;6.10;;
6290;SDS011;3178;48.730;8.990;2023-04-21T09:37:52;9.60;;;6.03;;
6290;SDS011;3178;48.730;8.990;2023-04-21T09:40:18;7.27;;;6.30;;
6290;SDS011;3178;48.730;8.990;2023-04-21T09:42:44;8.70;;;6.47;;
6290;SDS011;3178;48.730;8.990;2023-04-21T09:45:10;8.57;;;6.00;;
6290;SDS011;3178;48.730;8.990;2023-04-21T09:47:38;6.97;;;4.87;;
6290;SDS011;3178;48.730;8.990;2023-04-21T09:50:07;9.20;;;5.50;;
6290;SDS011;3178;48.730;8.990;2023-04-21T09:52:36;8.47;;;6.47;;
6290;SDS011;3178;48.730;8.990;2023-04-21T09:55:03;7.03;;;5.73;;
6290;SDS011;3178;48.730;8.990;2023-04-21T09:57:37;12.20;;;6.17;;
6290;SDS011;3178;48.730;8.990;2023-04-21T10:00:05;6.60;;;4.53;;
6290;SDS011;3178;48.730;8.990;2023-04-21T10:02:33;5.47;;;4.90;;
6290;SDS011;3178;48.730;8.990;2023-04-21T10:05:00;4.93;;;3.90;;
6290;SDS011;3178;48.730;8.990;2023-04-21T10:07:31;4.93;;;3.90;;
6290;SDS011;3178;48.730;8.990;2023-04-21T10:09:57;7.70;;;4.40;;
6290;SDS011;3178;48.730;8.990;2023-04-21T10:12:23;6.40;;;4.20;;
6290;SDS011;3178;48.730;8.990;2023-04-21T10:14:51;6.57;;;4.53;;
6290;SDS011;3178;48.730;8.990;2023-04-21T10:17:17;5.17;;;4.20;;
6290;SDS011;3178;48.730;8.990;2023-04-21T10:19:52;5.83;;;4.10;;
6290;SDS011;3178;48.730;8.990;2023-04-21T10:22:26;6.97;;;4.13;;
6290;SDS011;3178;48.730;8.990;2023-04-21T10:24:54;7.80;;;5.00;;
6290;SDS011;3178;48.730;8.990;2023-04-21T10:27:39;5.30;;;4.57;;
6290;SDS011;3178;48.730;8.990;2023-04-21T10:30:18;6.70;;;3.87;;
6290;SDS011;3178;48.730;8.990;2023-04-21T10:32:46;3.87;;;3.50;;
6290;SDS011;3178;48.730;8.990;2023-04-21T10:35:13;8.10;;;5.10;;
6290;SDS011;3178;48.730;8.990;2023-04-21T10:37:41;11.07;;;5.20;;
6290;SDS011;3178;48.730;8.990;2023-04-21T10:42:52;6.30;;;4.23;;
6290;SDS011;3178;48.730;8.990;2023-04-21T10:45:17;8.53;;;5.20;;
6290;SDS011;3178;48.730;8.990;2023-04-21T10:47:46;7.27;;;4.80;;
6290;SDS011;3178;48.730;8.990;2023-04-21T10:55:30;8.87;;;5.33;;
6290;SDS011;3178;48.730;8.990;2023-04-21T10:57:56;6.37;;;5.23;;
6290;SDS011;3178;48.730;8.990;2023-04-21T11:00:25;6.70;;;5.10;;
6290;SDS011;3178;48.730;8.990;2023-04-21T11:02:58;6.30;;;4.10;;
6290;SDS011;3178;48.730;8.990;2023-04-21T11:05:26;6.13;;;5.30;;
6290;SDS011;3178;48.730;8.990;2023-04-21T11:08:00;7.93;;;5.03;;
6290;SDS011;3178;48.730;8.990;2023-04-21T11:10:45;11.13;;;4.23;;
6290;SDS011;3178;48.730;8.990;2023-04-21T11:13:24;6.40;;;4.63;;
6290;SDS011;3178;48.730;8.990;2023-04-21T11:15:54;7.17;;;5.20;;
6290;SDS011;3178;48.730;8.990;2023-04-21T11:18:30;5.90;;;4.93;;
6290;SDS011;3178;48.730;8.990;2023-04-21T11:21:09;9.13;;;4.73;;
6290;SDS011;3178;48.730;8.990;2023-04-21T11:24:15;7.53;;;5.10;;
6290;SDS011;3178;48.730;8.990;2023-04-21T11:26:34;6.83;;;5.00;;
6290;SDS011;3178;48.730;8.990;2023-04-21T11:29:03;5.20;;;4.07;;
6290;SDS011;3178;48.730;8.990;2023-04-21T11:31:32;5.83;;;4.40;;
6290;SDS011;3178;48.730;8.990;2023-04-21T11:33:59;7.00;;;6.30;;
6290;SDS011;3178;48.730;8.990;2023-04-21T11:36:25;5.07;;;4.57;;
6290;SDS011;3178;48.730;8.990;2023-04-21T11:38:51;7.83;;;5.60;;
6290;SDS011;3178;48.730;8.990;2023-04-21T11:41:20;8.77;;;6.40;;
6290;SDS011;3178;48.730;8.990;2023-04-21T11:43:47;7.53;;;5.80;;
6290;SDS011;3178;48.730;8.990;2023-04-21T11:46:17;9.07;;;5.90;;
6290;SDS011;3178;48.730;8.990;2023-04-21T11:48:46;6.73;;;5.23;;
6290;SDS011;3178;48.730;8.990;2023-04-21T11:51:23;6.30;;;5.60;;
6290;SDS011;3178;48.730;8.990;2023-04-21T11:53:48;7.00;;;5.33;;
6290;SDS011;3178;48.730;8.990;2023-04-21T11:56:19;7.13;;;6.43;;
6290;SDS011;3178;48.730;8.990;2023-04-21T11:58:45;9.10;;;7.00;;
6290;SDS011;3178;48.730;8.990;2023-04-21T12:01:14;9.50;;;7.27;;
6290;SDS011;3178;48.730;8.990;2023-04-21T12:03:40;10.10;;;7.43;;
6290;SDS011;3178;48.730;8.990;2023-04-21T12:06:05;8.57;;;7.00;;
6290;SDS011;3178;48.730;8.990;2023-04-21T12:08:31;14.23;;;6.63;;
6290;SDS011;3178;48.730;8.990;2023-04-21T12:10:58;9.17;;;7.20;;
6290;SDS011;3178;48.730;8.990;2023-04-21T12:13:26;10.70;;;7.80;;
6290;SDS011;3178;48.730;8.990;2023-04-21T12:15:52;8.93;;;6.17;;
6290;SDS011;3178;48.730;8.990;2023-04-21T12:18:17;6.67;;;5.77;;
6290;SDS011;3178;48.730;8.990;2023-04-21T12:20:50;9.07;;;6.10;;
6290;SDS011;3178;48.730;8.990;2023-04-21T12:23:17;7.40;;;6.10;;
6290;SDS011;3178;48.730;8.990;2023-04-21T12:25:42;7.67;;;5.30;;
6290;SDS011;3178;48.730;8.990;2023-04-21T12:28:10;6.40;;;5.77;;
6290;SDS011;3178;48.730;8.990;2023-04-21T12:30:39;10.37;;;6.90;;
6290;SDS011;3178;48.730;8.990;2023-04-21T12:33:05;8.33;;;5.50;;
6290;SDS011;3178;48.730;8.990;2023-04-21T12:35:30;8.57;;;5.40;;
6290;SDS011;3178;48.730;8.990;2023-04-21T12:37:57;7.20;;;5.63;;
6290;SDS011;3178;48.730;8.990;2023-04-21T12:40:22;7.23;;;5.60;;
6290;SDS011;3178;48.730;8.990;2023-04-21T12:42:48;7.90;;;5.87;;
6290;SDS011;3178;48.730;8.990;2023-04-21T12:45:14;12.33;;;6.20;;
6290;SDS011;3178;48.730;8.990;2023-04-21T12:47:39;9.03;;;6.90;;
6290;SDS011;3178;48.730;8.990;2023-04-21T12:50:06;7.23;;;6.03;;
6290;SDS011;3178;48.730;8.990;2023-04-21T12:52:32;6.73;;;5.83;;
6290;SDS011;3178;48.730;8.990;2023-04-21T12:54:57;7.40;;;5.90;;
6290;SDS011;3178;48.730;8.990;2023-04-21T12:57:23;9.57;;;6.33;;
6290;SDS011;3178;48.730;8.990;2023-04-21T12:59:48;7.50;;;5.20;;
6290;SDS011;3178;48.730;8.990;2023-04-21T13:02:14;5.90;;;5.00;;
6290;SDS011;3178;48.730;8.990;2023-04-21T13:04:40;5.37;;;4.87;;
6290;SDS011;3178;48.730;8.990;2023-04-21T13:07:06;7.37;;;6.00;;
6290;SDS011;3178;48.730;8.990;2023-04-21T13:09:32;5.53;;;4.90;;
6290;SDS011;3178;48.730;8.990;2023-04-21T13:11:57;6.93;;;5.80;;
6290;SDS011;3178;48.730;8.990;2023-04-21T13:14:23;7.97;;;5.57;;
6290;SDS011;3178;48.730;8.990;2023-04-21T13:16:49;6.57;;;5.40;;
6290;SDS011;3178;48.730;8.990;2023-04-21T13:19:14;8.90;;;6.27;;
6290;SDS011;3178;48.730;8.990;2023-04-21T13:21:40;7.23;;;5.10;;
6290;SDS011;3178;48.730;8.990;2023-04-21T13:24:05;6.00;;;4.73;;
6290;SDS011;3178;48.730;8.990;2023-04-21T13:26:31;6.77;;;5.20;;
6290;SDS011;3178;48.730;8.990;2023-04-21T13:28:59;6.30;;;5.60;;
6290;SDS011;3178;48.730;8.990;2023-04-21T13:31:25;7.10;;;4.90;;
6290;SDS011;3178;48.730;8.990;2023-04-21T13:33:51;6.40;;;5.13;;
6290;SDS011;3178;48.730;8.990;2023-04-21T13:36:16;6.40;;;4.50;;
6290;SDS011;3178;48.730;8.990;2023-04-21T13:38:42;6.10;;;4.67;;
6290;SDS011;3178;48.730;8.990;2023-04-21T13:41:08;5.23;;;4.47;;
6290;SDS011;3178;48.730;8.990;2023-04-21T13:43:33;4.97;;;4.30;;
6290;SDS011;3178;48.730;8.990;2023-04-21T13:45:59;4.23;;;3.83;;
6290;SDS011;3178;48.730;8.990;2023-04-21T13:48:25;4.47;;;3.97;;
6290;SDS011;3178;48.730;8.990;2023-04-21T13:50:52;4.27;;;3.57;;
6290;SDS011;3178;48.730;8.990;2023-04-21T13:53:18;5.10;;;4.37;;
6290;SDS011;3178;48.730;8.990;2023-04-21T13:55:43;5.17;;;4.43;;
6290;SDS011;3178;48.730;8.990;2023-04-21T13:58:09;4.63;;;3.67;;
6290;SDS011;3178;48.730;8.990;2023-04-21T14:00:35;11.27;;;4.20;;
6290;SDS011;3178;48.730;8.990;2023-04-21T14:03:01;4.17;;;3.70;;
6290;SDS011;3178;48.730;8.990;2023-04-21T14:05:27;3.47;;;3.17;;
6290;SDS011;3178;48.730;8.990;2023-04-21T14:07:54;4.33;;;3.50;;
6290;SDS011;3178;48.730;8.990;2023-04-21T14:10:19;6.00;;;3.80;;
6290;SDS011;3178;48.730;8.990;2023-04-21T14:12:45;3.83;;;3.30;;
6290;SDS011;3178;48.730;8.990;2023-04-21T14:15:12;5.20;;;3.57;;
6290;SDS011;3178;48.730;8.990;2023-04-21T14:17:38;4.87;;;4.07;;
6290;SDS011;3178;48.730;8.990;2023-04-21T14:20:04;3.40;;;3.10;;
6290;SDS011;3178;48.730;8.990;2023-04-21T14:22:31;4.30;;;3.17;;
6290;SDS011;3178;48.730;8.990;2023-04-21T14:24:56;4.27;;;3.67;;
6290;SDS011;3178;48.730;8.990;2023-04-21T14:27:22;4.27;;;3.13;;
6290;SDS011;3178;48.730;8.990;2023-04-21T14:29:47;3.63;;;3.00;;
6290;SDS011;3178;48.730;8.990;2023-04-21T14:32:13;7.83;;;3.03;;
6290;SDS011;3178;48.730;8.990;2023-04-21T14:34:39;3.67;;;3.10;;
6290;SDS011;3178;48.730;8.990;2023-04-21T14:37:04;3.30;;;2.93;;
6290;SDS011;3178;48.730;8.990;2023-04-21T14:39:30;2.90;;;2.60;;
6290;SDS011;3178;48.730;8.990;2023-04-21T14:41:56;3.57;;;3.27;;
6290;SDS011;3178;48.730;8.990;2023-04-21T14:44:22;3.30;;;3.00;;
6290;SDS011;3178;48.730;8.990;2023-04-21T14:46:47;3.57;;;3.27;;
6290;SDS011;3178;48.730;8.990;2023-04-21T14:49:13;4.20;;;3.23;;
6290;SDS011;3178;48.730;8.990;2023-04-21T14:51:39;3.57;;;3.00;;
6290;SDS011;3178;48.730;8.990;2023-04-21T14:54:05;6.40;;;3.53;;
6290;SDS011;3178;48.730;8.990;2023-04-21T14:56:31;3.77;;;3.03;;
6290;SDS011;3178;48.730;8.990;2023-04-21T14:58:57;6.30;;;3.57;;
6290;SDS011;3178;48.730;8.990;2023-04-21T15:01:22;3.90;;;3.30;;
6290;SDS011;3178;48.730;8.990;2023-04-21T15:03:48;2.90;;;2.60;;
6290;SDS011;3178;48.730;8.990;2023-04-21T15:06:14;3.47;;;3.00;;